sensor_id;sensor_type;location;lat;lon;timestamp;P1;durP1;ratioP1;P2;durP2;ratioP2
5277;SDS011;2662;51.194;6.614;2023-02-23T00:00:12;51.07;;;26.80;;
5277;SDS011;2662;51.194;6.614;2023-02-23T00:02:47;47.30;;;26.83;;
5277;SDS011;2662;51.194;6.614;2023-02-23T00:05:15;51.90;;;26.97;;
5277;SDS011;2662;51.194;6.614;2023-02-23T00:07:42;50.33;;;27.70;;
5277;SDS011;2662;51.194;6.614;2023-02-23T00:10:10;48.73;;;26.77;;
5277;SDS011;2662;51.194;6.614;2023-02-23T00:12:39;47.30;;;27.50;;
5277;SDS011;2662;51.194;6.614;2023-02-23T00:15:06;58.83;;;27.90;;
5277;SDS011;2662;51.194;6.614;2023-02-23T00:17:33;49.20;;;27.83;;
5277;SDS011;2662;51.194;6.614;2023-02-23T00:20:03;47.93;;;25.73;;
5277;SDS011;2662;51.194;6.614;2023-02-23T00:22:35;60.03;;;28.77;;
5277;SDS011;2662;51.194;6.614;2023-02-23T00:25:03;46.43;;;26.50;;
5277;SDS011;2662;51.194;6.614;2023-02-23T00:27:32;52.20;;;27.80;;
5277;SDS011;2662;51.194;6.614;2023-02-23T00:30:00;53.90;;;26.17;;
5277;SDS011;2662;51.194;6.614;2023-02-23T00:32:28;50.17;;;27.60;;
5277;SDS011;2662;51.194;6.614;2023-02-23T00:34:54;44.80;;;26.50;;
5277;SDS011;2662;51.194;6.614;2023-02-23T00:37:23;52.77;;;28.20;;
5277;SDS011;2662;51.194;6.614;2023-02-23T00:39:50;48.50;;;27.93;;
5277;SDS011;2662;51.194;6.614;2023-02-23T00:42:20;49.20;;;28.10;;
5277;SDS011;2662;51.194;6.614;2023-02-23T00:44:47;51.53;;;27.90;;
5277;SDS011;2662;51.194;6.614;2023-02-23T00:47:14;56.07;;;27.70;;
5277;SDS011;2662;51.194;6.614;2023-02-23T00:49:41;49.20;;;26.90;;
5277;SDS011;2662;51.194;6.614;2023-02-23T00:52:09;55.40;;;28.50;;
5277;SDS011;2662;51.194;6.614;2023-02-23T00:54:39;58.07;;;28.03;;
5277;SDS011;2662;51.194;6.614;2023-02-23T00:57:07;48.90;;;29.03;;
5277;SDS011;2662;51.194;6.614;2023-02-23T00:59:33;50.37;;;27.63;;
5277;SDS011;2662;51.194;6.614;2023-02-23T01:02:00;53.07;;;27.50;;
5277;SDS011;2662;51.194;6.614;2023-02-23T01:04:27;48.77;;;27.47;;
5277;SDS011;2662;51.194;6.614;2023-02-23T01:06:54;49.60;;;26.90;;
5277;SDS011;2662;51.194;6.614;2023-02-23T01:09:21;49.50;;;27.93;;
5277;SDS011;2662;51.194;6.614;2023-02-23T01:11:54;48.80;;;27.10;;
5277;SDS011;2662;51.194;6.614;2023-02-23T01:14:22;49.53;;;27.90;;
5277;SDS011;2662;51.194;6.614;2023-02-23T01:16:49;46.97;;;26.50;;
5277;SDS011;2662;51.194;6.614;2023-02-23T01:19:15;53.87;;;27.93;;
5277;SDS011;2662;51.194;6.614;2023-02-23T01:21:42;45.83;;;27.17;;
5277;SDS011;2662;51.194;6.614;2023-02-23T01:24:09;48.53;;;27.23;;
5277;SDS011;2662;51.194;6.614;2023-02-23T01:26:38;47.00;;;27.37;;
5277;SDS011;2662;51.194;6.614;2023-02-23T01:29:08;45.40;;;27.20;;
5277;SDS011;2662;51.194;6.614;2023-02-23T01:31:37;49.43;;;27.37;;
5277;SDS011;2662;51.194;6.614;2023-02-23T01:34:05;51.17;;;28.70;;
5277;SDS011;2662;51.194;6.614;2023-02-23T01:36:32;47.17;;;26.77;;
5277;SDS011;2662;51.194;6.614;2023-02-23T01:39:00;49.77;;;28.10;;
5277;SDS011;2662;51.194;6.614;2023-02-23T01:41:30;44.00;;;26.03;;
5277;SDS011;2662;51.194;6.614;2023-02-23T01:43:57;49.80;;;28.77;;
5277;SDS011;2662;51.194;6.614;2023-02-23T01:46:29;55.83;;;29.50;;
5277;SDS011;2662;51.194;6.614;2023-02-23T01:48:57;55.03;;;28.83;;
5277;SDS011;2662;51.194;6.614;2023-02-23T01:51:24;52.50;;;27.17;;
5277;SDS011;2662;51.194;6.614;2023-02-23T01:53:55;52.40;;;28.13;;
5277;SDS011;2662;51.194;6.614;2023-02-23T01:56:26;51.03;;;27.93;;
5277;SDS011;2662;51.194;6.614;2023-02-23T01:58:56;54.60;;;26.90;;
5277;SDS011;2662;51.194;6.614;2023-02-23T02:01:27;54.50;;;28.10;;
5277;SDS011;2662;51.194;6.614;2023-02-23T02:03:57;51.83;;;26.87;;
5277;SDS011;2662;51.194;6.614;2023-02-23T02:06:26;50.60;;;27.57;;
5277;SDS011;2662;51.194;6.614;2023-02-23T02:08:55;52.90;;;29.30;;
5277;SDS011;2662;51.194;6.614;2023-02-23T02:11:25;58.33;;;30.20;;
5277;SDS011;2662;51.194;6.614;2023-02-23T02:14:00;50.43;;;27.57;;
5277;SDS011;2662;51.194;6.614;2023-02-23T02:16:59;54.43;;;29.63;;
5277;SDS011;2662;51.194;6.614;2023-02-23T02:23:03;56.23;;;29.50;;
5277;SDS011;2662;51.194;6.614;2023-02-23T02:25:57;49.77;;;29.37;;
5277;SDS011;2662;51.194;6.614;2023-02-23T02:28:56;53.67;;;29.30;;
5277;SDS011;2662;51.194;6.614;2023-02-23T02:37:56;53.40;;;28.33;;
5277;SDS011;2662;51.194;6.614;2023-02-23T02:40:41;54.50;;;27.57;;
5277;SDS011;2662;51.194;6.614;2023-02-23T02:43:19;53.73;;;29.70;;
5277;SDS011;2662;51.194;6.614;2023-02-23T02:46:01;48.67;;;28.97;;
5277;SDS011;2662;51.194;6.614;2023-02-23T02:48:36;57.03;;;29.40;;
5277;SDS011;2662;51.194;6.614;2023-02-23T02:51:09;54.07;;;30.23;;
5277;SDS011;2662;51.194;6.614;2023-02-23T02:53:45;55.47;;;28.07;;
5277;SDS011;2662;51.194;6.614;2023-02-23T02:56:20;53.33;;;28.60;;
5277;SDS011;2662;51.194;6.614;2023-02-23T02:58:51;58.47;;;29.63;;
5277;SDS011;2662;51.194;6.614;2023-02-23T03:01:19;55.93;;;31.30;;
5277;SDS011;2662;51.194;6.614;2023-02-23T03:04:16;49.90;;;28.90;;
5277;SDS011;2662;51.194;6.614;2023-02-23T03:07:03;60.43;;;29.00;;
5277;SDS011;2662;51.194;6.614;2023-02-23T03:09:55;58.73;;;29.83;;
5277;SDS011;2662;51.194;6.614;2023-02-23T03:12:44;53.20;;;29.07;;
5277;SDS011;2662;51.194;6.614;2023-02-23T03:15:41;58.63;;;31.33;;
5277;SDS011;2662;51.194;6.614;2023-02-23T03:18:42;54.53;;;28.97;;
5277;SDS011;2662;51.194;6.614;2023-02-23T03:21:41;58.77;;;30.37;;
5277;SDS011;2662;51.194;6.614;2023-02-23T03:24:31;59.87;;;31.33;;
5277;SDS011;2662;51.194;6.614;2023-02-23T03:27:25;49.47;;;28.10;;
5277;SDS011;2662;51.194;6.614;2023-02-23T03:30:19;59.10;;;30.03;;
5277;SDS011;2662;51.194;6.614;2023-02-23T03:33:08;53.20;;;28.87;;
5277;SDS011;2662;51.194;6.614;2023-02-23T03:35:56;61.50;;;31.27;;
5277;SDS011;2662;51.194;6.614;2023-02-23T03:38:46;57.47;;;29.57;;
5277;SDS011;2662;51.194;6.614;2023-02-23T03:41:36;59.60;;;30.47;;
5277;SDS011;2662;51.194;6.614;2023-02-23T03:44:24;59.10;;;29.40;;
5277;SDS011;2662;51.194;6.614;2023-02-23T03:47:12;68.13;;;31.47;;
5277;SDS011;2662;51.194;6.614;2023-02-23T03:49:58;57.23;;;30.60;;
5277;SDS011;2662;51.194;6.614;2023-02-23T03:52:46;65.13;;;31.30;;
5277;SDS011;2662;51.194;6.614;2023-02-23T03:55:35;72.70;;;31.13;;
5277;SDS011;2662;51.194;6.614;2023-02-23T03:58:24;61.57;;;30.50;;
5277;SDS011;2662;51.194;6.614;2023-02-23T04:01:14;57.90;;;30.03;;
5277;SDS011;2662;51.194;6.614;2023-02-23T04:04:00;75.30;;;31.90;;
5277;SDS011;2662;51.194;6.614;2023-02-23T04:06:47;60.03;;;31.03;;
5277;SDS011;2662;51.194;6.614;2023-02-23T04:09:33;63.83;;;30.50;;
5277;SDS011;2662;51.194;6.614;2023-02-23T04:12:19;67.07;;;31.47;;
5277;SDS011;2662;51.194;6.614;2023-02-23T04:15:10;70.30;;;31.23;;
5277;SDS011;2662;51.194;6.614;2023-02-23T04:17:41;74.13;;;32.97;;
5277;SDS011;2662;51.194;6.614;2023-02-23T04:20:08;63.93;;;31.57;;
5277;SDS011;2662;51.194;6.614;2023-02-23T04:22:37;73.50;;;34.03;;
5277;SDS011;2662;51.194;6.614;2023-02-23T04:25:04;85.73;;;35.47;;
5277;SDS011;2662;51.194;6.614;2023-02-23T04:27:32;70.63;;;34.23;;
5277;SDS011;2662;51.194;6.614;2023-02-23T04:29:59;86.67;;;34.00;;
5277;SDS011;2662;51.194;6.614;2023-02-23T04:32:27;79.73;;;32.43;;
5277;SDS011;2662;51.194;6.614;2023-02-23T04:34:56;74.10;;;33.27;;
5277;SDS011;2662;51.194;6.614;2023-02-23T04:37:23;71.80;;;33.43;;
5277;SDS011;2662;51.194;6.614;2023-02-23T04:39:50;73.20;;;33.03;;
5277;SDS011;2662;51.194;6.614;2023-02-23T04:42:16;76.07;;;34.37;;
5277;SDS011;2662;51.194;6.614;2023-02-23T04:44:43;81.33;;;34.37;;
5277;SDS011;2662;51.194;6.614;2023-02-23T04:47:10;86.90;;;34.27;;
5277;SDS011;2662;51.194;6.614;2023-02-23T04:49:39;79.43;;;34.07;;
5277;SDS011;2662;51.194;6.614;2023-02-23T04:52:07;78.80;;;34.37;;
5277;SDS011;2662;51.194;6.614;2023-02-23T04:54:36;76.03;;;32.67;;
5277;SDS011;2662;51.194;6.614;2023-02-23T04:57:02;73.83;;;32.23;;
5277;SDS011;2662;51.194;6.614;2023-02-23T04:59:29;75.43;;;34.47;;
5277;SDS011;2662;51.194;6.614;2023-02-23T05:01:56;75.83;;;32.20;;
5277;SDS011;2662;51.194;6.614;2023-02-23T05:04:23;71.63;;;32.47;;
5277;SDS011;2662;51.194;6.614;2023-02-23T05:06:50;81.73;;;34.33;;
5277;SDS011;2662;51.194;6.614;2023-02-23T05:09:18;74.87;;;34.53;;
5277;SDS011;2662;51.194;6.614;2023-02-23T05:11:45;77.63;;;34.70;;
5277;SDS011;2662;51.194;6.614;2023-02-23T05:14:12;82.07;;;34.90;;
5277;SDS011;2662;51.194;6.614;2023-02-23T05:16:38;77.70;;;33.50;;
5277;SDS011;2662;51.194;6.614;2023-02-23T05:19:05;71.70;;;33.03;;
5277;SDS011;2662;51.194;6.614;2023-02-23T05:21:32;83.20;;;36.40;;
5277;SDS011;2662;51.194;6.614;2023-02-23T05:23:59;77.30;;;34.90;;
5277;SDS011;2662;51.194;6.614;2023-02-23T05:26:27;71.33;;;32.30;;
5277;SDS011;2662;51.194;6.614;2023-02-23T05:28:54;79.30;;;34.47;;
5277;SDS011;2662;51.194;6.614;2023-02-23T05:31:21;88.27;;;35.60;;
5277;SDS011;2662;51.194;6.614;2023-02-23T05:33:48;85.10;;;35.33;;
5277;SDS011;2662;51.194;6.614;2023-02-23T05:36:16;78.43;;;34.40;;
5277;SDS011;2662;51.194;6.614;2023-02-23T05:38:44;81.10;;;34.60;;
5277;SDS011;2662;51.194;6.614;2023-02-23T05:41:14;78.73;;;36.20;;
5277;SDS011;2662;51.194;6.614;2023-02-23T05:43:43;86.20;;;35.33;;
5277;SDS011;2662;51.194;6.614;2023-02-23T05:46:11;76.67;;;35.17;;
5277;SDS011;2662;51.194;6.614;2023-02-23T05:48:41;72.47;;;33.80;;
5277;SDS011;2662;51.194;6.614;2023-02-23T05:51:08;88.60;;;34.83;;
5277;SDS011;2662;51.194;6.614;2023-02-23T05:53:37;82.33;;;34.07;;
5277;SDS011;2662;51.194;6.614;2023-02-23T05:56:05;73.73;;;32.63;;
5277;SDS011;2662;51.194;6.614;2023-02-23T05:58:35;83.93;;;34.80;;
5277;SDS011;2662;51.194;6.614;2023-02-23T06:01:03;77.17;;;34.97;;
5277;SDS011;2662;51.194;6.614;2023-02-23T06:03:30;75.83;;;34.40;;
5277;SDS011;2662;51.194;6.614;2023-02-23T06:05:57;71.93;;;33.90;;
5277;SDS011;2662;51.194;6.614;2023-02-23T06:08:24;75.30;;;35.97;;
5277;SDS011;2662;51.194;6.614;2023-02-23T06:10:51;85.83;;;34.73;;
5277;SDS011;2662;51.194;6.614;2023-02-23T06:13:18;87.40;;;37.27;;
5277;SDS011;2662;51.194;6.614;2023-02-23T06:15:46;75.23;;;33.10;;
5277;SDS011;2662;51.194;6.614;2023-02-23T06:18:14;77.00;;;33.97;;
5277;SDS011;2662;51.194;6.614;2023-02-23T06:20:42;67.30;;;34.20;;
5277;SDS011;2662;51.194;6.614;2023-02-23T06:23:10;80.03;;;34.13;;
5277;SDS011;2662;51.194;6.614;2023-02-23T06:25:37;91.40;;;36.67;;
5277;SDS011;2662;51.194;6.614;2023-02-23T06:28:04;74.80;;;33.30;;
5277;SDS011;2662;51.194;6.614;2023-02-23T06:30:32;78.57;;;34.70;;
5277;SDS011;2662;51.194;6.614;2023-02-23T06:32:59;78.80;;;35.50;;
5277;SDS011;2662;51.194;6.614;2023-02-23T06:35:27;80.80;;;33.30;;
5277;SDS011;2662;51.194;6.614;2023-02-23T06:37:54;73.93;;;34.67;;
5277;SDS011;2662;51.194;6.614;2023-02-23T06:40:21;71.27;;;34.30;;
5277;SDS011;2662;51.194;6.614;2023-02-23T06:42:48;73.83;;;33.53;;
5277;SDS011;2662;51.194;6.614;2023-02-23T06:45:15;76.07;;;33.37;;
5277;SDS011;2662;51.194;6.614;2023-02-23T06:47:43;74.20;;;33.97;;
5277;SDS011;2662;51.194;6.614;2023-02-23T06:50:10;77.43;;;33.33;;
5277;SDS011;2662;51.194;6.614;2023-02-23T06:52:39;66.87;;;32.80;;
5277;SDS011;2662;51.194;6.614;2023-02-23T06:55:07;72.33;;;33.57;;
5277;SDS011;2662;51.194;6.614;2023-02-23T06:57:34;74.47;;;32.30;;
5277;SDS011;2662;51.194;6.614;2023-02-23T07:00:02;66.83;;;32.00;;
5277;SDS011;2662;51.194;6.614;2023-02-23T07:02:29;64.93;;;31.40;;
5277;SDS011;2662;51.194;6.614;2023-02-23T07:04:56;65.17;;;30.57;;
5277;SDS011;2662;51.194;6.614;2023-02-23T07:07:23;63.47;;;30.40;;
5277;SDS011;2662;51.194;6.614;2023-02-23T07:09:51;77.20;;;30.93;;
5277;SDS011;2662;51.194;6.614;2023-02-23T07:12:18;59.43;;;29.63;;
5277;SDS011;2662;51.194;6.614;2023-02-23T07:14:45;65.97;;;30.00;;
5277;SDS011;2662;51.194;6.614;2023-02-23T07:17:11;58.20;;;29.00;;
5277;SDS011;2662;51.194;6.614;2023-02-23T07:19:38;57.40;;;29.83;;
5277;SDS011;2662;51.194;6.614;2023-02-23T07:22:05;56.10;;;29.77;;
5277;SDS011;2662;51.194;6.614;2023-02-23T07:24:31;59.20;;;28.47;;
5277;SDS011;2662;51.194;6.614;2023-02-23T07:26:59;57.17;;;28.40;;
5277;SDS011;2662;51.194;6.614;2023-02-23T07:29:26;53.83;;;28.43;;
5277;SDS011;2662;51.194;6.614;2023-02-23T07:31:53;56.87;;;29.40;;
5277;SDS011;2662;51.194;6.614;2023-02-23T07:34:20;54.50;;;28.50;;
5277;SDS011;2662;51.194;6.614;2023-02-23T07:36:46;56.20;;;27.93;;
5277;SDS011;2662;51.194;6.614;2023-02-23T07:39:13;57.33;;;28.40;;
5277;SDS011;2662;51.194;6.614;2023-02-23T07:41:40;60.17;;;28.80;;
5277;SDS011;2662;51.194;6.614;2023-02-23T07:44:08;53.43;;;27.20;;
5277;SDS011;2662;51.194;6.614;2023-02-23T07:46:35;61.20;;;28.33;;
5277;SDS011;2662;51.194;6.614;2023-02-23T07:49:02;76.97;;;31.07;;
5277;SDS011;2662;51.194;6.614;2023-02-23T07:51:28;74.43;;;30.03;;
5277;SDS011;2662;51.194;6.614;2023-02-23T07:53:55;76.57;;;30.13;;
5277;SDS011;2662;51.194;6.614;2023-02-23T07:56:22;81.90;;;31.53;;
5277;SDS011;2662;51.194;6.614;2023-02-23T07:58:49;74.90;;;32.50;;
5277;SDS011;2662;51.194;6.614;2023-02-23T08:01:18;85.60;;;31.40;;
5277;SDS011;2662;51.194;6.614;2023-02-23T08:03:44;76.80;;;31.50;;
5277;SDS011;2662;51.194;6.614;2023-02-23T08:06:13;78.70;;;31.47;;
5277;SDS011;2662;51.194;6.614;2023-02-23T08:08:41;81.77;;;33.10;;
5277;SDS011;2662;51.194;6.614;2023-02-23T08:11:08;83.70;;;31.47;;
5277;SDS011;2662;51.194;6.614;2023-02-23T08:13:34;77.40;;;32.80;;
5277;SDS011;2662;51.194;6.614;2023-02-23T08:16:02;80.33;;;31.93;;
5277;SDS011;2662;51.194;6.614;2023-02-23T08:18:30;82.33;;;32.80;;
5277;SDS011;2662;51.194;6.614;2023-02-23T08:20:58;84.17;;;32.70;;
5277;SDS011;2662;51.194;6.614;2023-02-23T08:23:25;81.40;;;32.10;;
5277;SDS011;2662;51.194;6.614;2023-02-23T08:25:53;84.87;;;32.40;;
5277;SDS011;2662;51.194;6.614;2023-02-23T08:28:20;79.37;;;29.43;;
5277;SDS011;2662;51.194;6.614;2023-02-23T08:30:48;85.47;;;30.30;;
5277;SDS011;2662;51.194;6.614;2023-02-23T08:33:15;83.73;;;32.20;;
5277;SDS011;2662;51.194;6.614;2023-02-23T08:35:43;75.43;;;29.77;;
5277;SDS011;2662;51.194;6.614;2023-02-23T08:38:10;78.40;;;29.67;;
5277;SDS011;2662;51.194;6.614;2023-02-23T08:40:36;74.10;;;29.60;;
5277;SDS011;2662;51.194;6.614;2023-02-23T08:43:03;81.50;;;29.87;;
5277;SDS011;2662;51.194;6.614;2023-02-23T08:45:30;83.80;;;30.43;;
5277;SDS011;2662;51.194;6.614;2023-02-23T08:47:57;76.20;;;31.40;;
5277;SDS011;2662;51.194;6.614;2023-02-23T08:50:23;74.63;;;30.70;;
5277;SDS011;2662;51.194;6.614;2023-02-23T08:52:51;80.47;;;31.23;;
5277;SDS011;2662;51.194;6.614;2023-02-23T08:55:19;73.37;;;30.13;;
5277;SDS011;2662;51.194;6.614;2023-02-23T08:57:46;75.93;;;31.00;;
5277;SDS011;2662;51.194;6.614;2023-02-23T09:00:13;74.60;;;29.70;;
5277;SDS011;2662;51.194;6.614;2023-02-23T09:02:40;81.10;;;31.53;;
5277;SDS011;2662;51.194;6.614;2023-02-23T09:05:08;78.60;;;29.77;;
5277;SDS011;2662;51.194;6.614;2023-02-23T09:07:36;95.10;;;34.30;;
5277;SDS011;2662;51.194;6.614;2023-02-23T09:10:05;83.90;;;32.13;;
5277;SDS011;2662;51.194;6.614;2023-02-23T09:12:33;88.33;;;32.60;;
5277;SDS011;2662;51.194;6.614;2023-02-23T09:15:00;75.60;;;30.50;;
5277;SDS011;2662;51.194;6.614;2023-02-23T09:17:27;79.17;;;31.17;;
5277;SDS011;2662;51.194;6.614;2023-02-23T09:19:54;88.50;;;31.13;;
5277;SDS011;2662;51.194;6.614;2023-02-23T09:22:20;86.53;;;32.20;;
5277;SDS011;2662;51.194;6.614;2023-02-23T09:24:47;75.47;;;32.27;;
5277;SDS011;2662;51.194;6.614;2023-02-23T09:27:15;79.90;;;32.20;;
5277;SDS011;2662;51.194;6.614;2023-02-23T09:29:42;89.50;;;32.37;;
5277;SDS011;2662;51.194;6.614;2023-02-23T09:32:09;82.27;;;31.53;;
5277;SDS011;2662;51.194;6.614;2023-02-23T09:34:36;75.83;;;29.90;;
5277;SDS011;2662;51.194;6.614;2023-02-23T09:37:03;88.80;;;31.53;;
5277;SDS011;2662;51.194;6.614;2023-02-23T09:39:30;83.77;;;30.30;;
5277;SDS011;2662;51.194;6.614;2023-02-23T09:44:51;77.83;;;29.37;;
5277;SDS011;2662;51.194;6.614;2023-02-23T09:47:28;70.50;;;27.17;;
5277;SDS011;2662;51.194;6.614;2023-02-23T09:50:02;74.07;;;29.37;;
5277;SDS011;2662;51.194;6.614;2023-02-23T09:52:34;74.93;;;29.50;;
5277;SDS011;2662;51.194;6.614;2023-02-23T09:55:05;84.63;;;29.20;;
5277;SDS011;2662;51.194;6.614;2023-02-23T09:57:37;76.27;;;29.30;;
5277;SDS011;2662;51.194;6.614;2023-02-23T10:00:10;86.17;;;30.30;;
5277;SDS011;2662;51.194;6.614;2023-02-23T10:02:45;71.07;;;27.57;;
5277;SDS011;2662;51.194;6.614;2023-02-23T10:05:29;68.83;;;26.40;;
5277;SDS011;2662;51.194;6.614;2023-02-23T10:07:58;77.80;;;27.83;;
5277;SDS011;2662;51.194;6.614;2023-02-23T10:10:30;75.57;;;28.50;;
5277;SDS011;2662;51.194;6.614;2023-02-23T10:13:07;71.97;;;26.27;;
5277;SDS011;2662;51.194;6.614;2023-02-23T10:15:45;68.47;;;27.50;;
5277;SDS011;2662;51.194;6.614;2023-02-23T10:18:18;70.50;;;27.30;;
5277;SDS011;2662;51.194;6.614;2023-02-23T10:20:52;74.10;;;28.57;;
5277;SDS011;2662;51.194;6.614;2023-02-23T10:23:26;76.67;;;27.67;;
5277;SDS011;2662;51.194;6.614;2023-02-23T10:25:56;74.17;;;27.17;;
5277;SDS011;2662;51.194;6.614;2023-02-23T10:28:27;70.20;;;28.70;;
5277;SDS011;2662;51.194;6.614;2023-02-23T10:30:59;68.47;;;25.30;;
5277;SDS011;2662;51.194;6.614;2023-02-23T10:33:27;73.03;;;25.80;;
5277;SDS011;2662;51.194;6.614;2023-02-23T10:35:59;63.43;;;25.23;;
5277;SDS011;2662;51.194;6.614;2023-02-23T10:38:36;61.57;;;24.47;;
5277;SDS011;2662;51.194;6.614;2023-02-23T10:41:02;63.10;;;26.67;;
5277;SDS011;2662;51.194;6.614;2023-02-23T10:43:31;62.73;;;26.23;;
5277;SDS011;2662;51.194;6.614;2023-02-23T10:45:58;62.33;;;24.60;;
5277;SDS011;2662;51.194;6.614;2023-02-23T10:48:25;67.70;;;26.10;;
5277;SDS011;2662;51.194;6.614;2023-02-23T10:50:56;58.40;;;25.90;;
5277;SDS011;2662;51.194;6.614;2023-02-23T10:53:29;67.73;;;27.00;;
5277;SDS011;2662;51.194;6.614;2023-02-23T10:56:00;73.93;;;26.67;;
5277;SDS011;2662;51.194;6.614;2023-02-23T10:58:32;71.37;;;27.77;;
5277;SDS011;2662;51.194;6.614;2023-02-23T11:01:07;61.33;;;25.00;;
5277;SDS011;2662;51.194;6.614;2023-02-23T11:03:35;57.13;;;23.57;;
5277;SDS011;2662;51.194;6.614;2023-02-23T11:06:04;59.80;;;23.67;;
5277;SDS011;2662;51.194;6.614;2023-02-23T11:08:32;68.33;;;22.30;;
5277;SDS011;2662;51.194;6.614;2023-02-23T11:11:05;54.37;;;22.67;;
5277;SDS011;2662;51.194;6.614;2023-02-23T11:13:44;58.93;;;23.07;;
5277;SDS011;2662;51.194;6.614;2023-02-23T11:16:12;51.57;;;22.40;;
5277;SDS011;2662;51.194;6.614;2023-02-23T11:18:41;55.53;;;21.90;;
5277;SDS011;2662;51.194;6.614;2023-02-23T11:21:16;62.73;;;22.13;;
5277;SDS011;2662;51.194;6.614;2023-02-23T11:23:47;54.70;;;21.33;;
5277;SDS011;2662;51.194;6.614;2023-02-23T11:29:08;57.60;;;22.70;;
5277;SDS011;2662;51.194;6.614;2023-02-23T11:31:44;58.03;;;22.93;;
5277;SDS011;2662;51.194;6.614;2023-02-23T11:34:18;53.73;;;22.60;;
5277;SDS011;2662;51.194;6.614;2023-02-23T11:36:56;56.13;;;22.77;;
5277;SDS011;2662;51.194;6.614;2023-02-23T11:39:25;57.33;;;22.93;;
5277;SDS011;2662;51.194;6.614;2023-02-23T11:44:51;57.70;;;21.13;;
5277;SDS011;2662;51.194;6.614;2023-02-23T11:47:28;51.27;;;20.43;;
5277;SDS011;2662;51.194;6.614;2023-02-23T11:49:56;46.80;;;20.10;;
5277;SDS011;2662;51.194;6.614;2023-02-23T11:52:24;56.73;;;21.33;;
5277;SDS011;2662;51.194;6.614;2023-02-23T11:54:53;48.17;;;20.27;;
5277;SDS011;2662;51.194;6.614;2023-02-23T11:57:22;55.70;;;21.17;;
5277;SDS011;2662;51.194;6.614;2023-02-23T11:59:52;44.47;;;20.60;;
5277;SDS011;2662;51.194;6.614;2023-02-23T12:02:21;52.70;;;20.40;;
5277;SDS011;2662;51.194;6.614;2023-02-23T12:04:50;47.30;;;20.10;;
5277;SDS011;2662;51.194;6.614;2023-02-23T12:07:30;48.67;;;21.00;;
5277;SDS011;2662;51.194;6.614;2023-02-23T12:10:06;45.67;;;20.03;;
5277;SDS011;2662;51.194;6.614;2023-02-23T12:12:42;54.47;;;20.27;;
5277;SDS011;2662;51.194;6.614;2023-02-23T12:15:17;41.50;;;18.60;;
5277;SDS011;2662;51.194;6.614;2023-02-23T12:17:50;40.73;;;17.70;;
5277;SDS011;2662;51.194;6.614;2023-02-23T12:20:23;42.87;;;18.40;;
5277;SDS011;2662;51.194;6.614;2023-02-23T12:22:53;43.53;;;18.00;;
5277;SDS011;2662;51.194;6.614;2023-02-23T12:25:24;40.30;;;17.77;;
5277;SDS011;2662;51.194;6.614;2023-02-23T12:27:56;44.87;;;17.77;;
5277;SDS011;2662;51.194;6.614;2023-02-23T12:30:34;38.47;;;17.00;;
5277;SDS011;2662;51.194;6.614;2023-02-23T12:33:08;35.20;;;15.90;;
5277;SDS011;2662;51.194;6.614;2023-02-23T12:35:41;48.77;;;18.87;;
5277;SDS011;2662;51.194;6.614;2023-02-23T12:38:14;36.83;;;16.17;;
5277;SDS011;2662;51.194;6.614;2023-02-23T12:40:51;34.70;;;15.33;;
5277;SDS011;2662;51.194;6.614;2023-02-23T12:43:24;35.53;;;14.63;;
5277;SDS011;2662;51.194;6.614;2023-02-23T12:45:58;35.23;;;15.70;;
5277;SDS011;2662;51.194;6.614;2023-02-23T12:48:34;32.70;;;13.43;;
5277;SDS011;2662;51.194;6.614;2023-02-23T12:51:12;28.67;;;12.97;;
5277;SDS011;2662;51.194;6.614;2023-02-23T12:53:46;31.00;;;13.47;;
5277;SDS011;2662;51.194;6.614;2023-02-23T12:56:19;27.17;;;12.47;;
5277;SDS011;2662;51.194;6.614;2023-02-23T13:02:14;30.50;;;13.63;;
5277;SDS011;2662;51.194;6.614;2023-02-23T13:04:55;31.70;;;14.17;;
5277;SDS011;2662;51.194;6.614;2023-02-23T13:07:41;35.60;;;15.73;;
5277;SDS011;2662;51.194;6.614;2023-02-23T13:10:15;30.50;;;14.00;;
5277;SDS011;2662;51.194;6.614;2023-02-23T13:12:53;32.70;;;13.93;;
5277;SDS011;2662;51.194;6.614;2023-02-23T13:15:31;34.27;;;16.20;;
5277;SDS011;2662;51.194;6.614;2023-02-23T13:18:10;37.10;;;16.00;;
5277;SDS011;2662;51.194;6.614;2023-02-23T13:20:44;34.53;;;14.80;;
5277;SDS011;2662;51.194;6.614;2023-02-23T13:23:18;39.87;;;15.40;;
5277;SDS011;2662;51.194;6.614;2023-02-23T13:25:51;32.07;;;13.70;;
5277;SDS011;2662;51.194;6.614;2023-02-23T13:28:31;34.67;;;15.60;;
5277;SDS011;2662;51.194;6.614;2023-02-23T13:31:07;35.27;;;14.73;;
5277;SDS011;2662;51.194;6.614;2023-02-23T13:33:46;34.20;;;14.50;;
5277;SDS011;2662;51.194;6.614;2023-02-23T13:36:14;36.03;;;15.70;;
5277;SDS011;2662;51.194;6.614;2023-02-23T13:38:43;33.80;;;14.50;;
5277;SDS011;2662;51.194;6.614;2023-02-23T13:41:24;37.30;;;14.33;;
5277;SDS011;2662;51.194;6.614;2023-02-23T13:43:59;30.73;;;14.30;;
5277;SDS011;2662;51.194;6.614;2023-02-23T13:46:34;36.13;;;16.07;;
5277;SDS011;2662;51.194;6.614;2023-02-23T13:49:17;36.97;;;15.97;;
5277;SDS011;2662;51.194;6.614;2023-02-23T13:51:53;34.50;;;15.57;;
5277;SDS011;2662;51.194;6.614;2023-02-23T13:54:24;38.50;;;16.23;;
5277;SDS011;2662;51.194;6.614;2023-02-23T13:56:57;38.97;;;15.77;;
5277;SDS011;2662;51.194;6.614;2023-02-23T13:59:26;38.60;;;16.17;;
5277;SDS011;2662;51.194;6.614;2023-02-23T14:01:57;38.67;;;15.50;;
5277;SDS011;2662;51.194;6.614;2023-02-23T14:04:34;30.50;;;14.43;;
5277;SDS011;2662;51.194;6.614;2023-02-23T14:07:02;37.87;;;15.40;;
5277;SDS011;2662;51.194;6.614;2023-02-23T14:09:39;31.27;;;14.70;;
5277;SDS011;2662;51.194;6.614;2023-02-23T14:12:13;32.40;;;15.73;;
5277;SDS011;2662;51.194;6.614;2023-02-23T14:14:44;29.73;;;14.00;;
5277;SDS011;2662;51.194;6.614;2023-02-23T14:23:26;34.17;;;13.70;;
5277;SDS011;2662;51.194;6.614;2023-02-23T14:29:19;31.00;;;14.73;;
5277;SDS011;2662;51.194;6.614;2023-02-23T14:31:53;36.00;;;15.53;;
5277;SDS011;2662;51.194;6.614;2023-02-23T14:34:22;33.07;;;15.07;;
5277;SDS011;2662;51.194;6.614;2023-02-23T14:37:14;41.83;;;15.90;;
5277;SDS011;2662;51.194;6.614;2023-02-23T14:39:50;37.30;;;15.37;;
5277;SDS011;2662;51.194;6.614;2023-02-23T14:42:19;39.30;;;15.80;;
5277;SDS011;2662;51.194;6.614;2023-02-23T14:44:48;34.83;;;14.80;;
5277;SDS011;2662;51.194;6.614;2023-02-23T14:47:17;32.90;;;14.70;;
5277;SDS011;2662;51.194;6.614;2023-02-23T14:49:46;32.50;;;14.97;;
5277;SDS011;2662;51.194;6.614;2023-02-23T14:52:18;34.70;;;15.57;;
5277;SDS011;2662;51.194;6.614;2023-02-23T14:54:48;50.67;;;15.10;;
5277;SDS011;2662;51.194;6.614;2023-02-23T14:57:16;37.50;;;15.77;;
5277;SDS011;2662;51.194;6.614;2023-02-23T14:59:49;37.63;;;14.40;;
5277;SDS011;2662;51.194;6.614;2023-02-23T15:02:19;34.00;;;14.50;;
5277;SDS011;2662;51.194;6.614;2023-02-23T15:04:48;34.67;;;15.30;;
5277;SDS011;2662;51.194;6.614;2023-02-23T15:07:16;37.57;;;15.30;;
5277;SDS011;2662;51.194;6.614;2023-02-23T15:09:49;38.43;;;15.37;;
5277;SDS011;2662;51.194;6.614;2023-02-23T15:12:18;37.97;;;14.50;;
5277;SDS011;2662;51.194;6.614;2023-02-23T15:14:50;35.47;;;13.47;;
5277;SDS011;2662;51.194;6.614;2023-02-23T15:17:21;33.03;;;14.17;;
5277;SDS011;2662;51.194;6.614;2023-02-23T15:19:52;36.50;;;15.40;;
5277;SDS011;2662;51.194;6.614;2023-02-23T15:22:24;36.00;;;14.33;;
5277;SDS011;2662;51.194;6.614;2023-02-23T15:24:54;27.23;;;13.20;;
5277;SDS011;2662;51.194;6.614;2023-02-23T15:27:23;28.70;;;13.13;;
5277;SDS011;2662;51.194;6.614;2023-02-23T15:29:54;35.90;;;13.57;;
5277;SDS011;2662;51.194;6.614;2023-02-23T15:32:21;31.93;;;12.40;;
5277;SDS011;2662;51.194;6.614;2023-02-23T15:34:49;33.93;;;13.60;;
5277;SDS011;2662;51.194;6.614;2023-02-23T15:37:18;29.97;;;13.50;;
5277;SDS011;2662;51.194;6.614;2023-02-23T15:39:53;32.17;;;12.77;;
5277;SDS011;2662;51.194;6.614;2023-02-23T15:42:24;29.27;;;12.80;;
5277;SDS011;2662;51.194;6.614;2023-02-23T15:44:55;27.70;;;11.87;;